createdAt,value
2022-12-24T00:01:06.351Z,96104.03
2022-12-24T00:03:34.130Z,96100.41
2022-12-24T00:06:05.297Z,96114.47
2022-12-24T00:08:32.821Z,96116.28
2022-12-24T00:11:01.737Z,96123.31
2022-12-24T00:13:29.318Z,96120.31
2022-12-24T00:15:56.877Z,96120.50
2022-12-24T00:18:24.463Z,96119.69
2022-12-24T00:20:52.480Z,96114.66
2022-12-24T00:23:20.448Z,96111.25
2022-12-24T00:25:48.160Z,96110.44
2022-12-24T00:28:18.090Z,96120.28
2022-12-24T00:30:45.744Z,96116.84
2022-12-24T00:33:13.293Z,96117.06
2022-12-24T00:35:41.552Z,96121.69
2022-12-24T00:38:09.557Z,96118.47
2022-12-24T00:40:37.135Z,96127.28
2022-12-24T00:43:04.935Z,96136.13
2022-12-24T00:45:33.809Z,96131.72
2022-12-24T00:48:01.441Z,96126.50
2022-12-24T00:50:29.013Z,96131.72
2022-12-24T00:52:56.663Z,96131.91
2022-12-24T00:55:24.288Z,96137.13
2022-12-24T00:57:51.835Z,96138.75
2022-12-24T01:00:19.934Z,96134.31
2022-12-24T01:02:49.104Z,96135.34
2022-12-24T01:05:20.549Z,96144.16
2022-12-24T01:07:49.298Z,96148.59
2022-12-24T01:10:20.246Z,96146.97
2022-12-24T01:12:48.118Z,96152.19
2022-12-24T01:15:18.403Z,96167.84
2022-12-24T01:17:45.916Z,96172.28
2022-12-24T01:20:17.977Z,96179.13
2022-12-24T01:22:45.824Z,96195.59
2022-12-24T01:25:13.855Z,96203.41
2022-12-24T01:27:41.512Z,96204.41
2022-12-24T01:30:14.197Z,96204.41
2022-12-24T01:32:41.574Z,96197.59
2022-12-24T01:35:10.638Z,96203.59
2022-12-24T01:37:39.776Z,96210.81
2022-12-24T01:40:27.130Z,96230.09
2022-12-24T01:43:12.474Z,96223.25
2022-12-24T01:45:49.521Z,96227.84
2022-12-24T01:48:29.814Z,96231.66
2022-12-24T01:51:03.516Z,96235.47
2022-12-24T01:53:35.620Z,96232.25
2022-12-24T01:56:04.476Z,96223.81
2022-12-24T01:58:34.480Z,96232.63
2022-12-24T02:01:02.252Z,96238.03
2022-12-24T02:03:30.041Z,96238.22
2022-12-24T02:06:00.467Z,96245.66
2022-12-24T02:08:39.821Z,96255.09
2022-12-24T02:11:13.600Z,96257.88
2022-12-24T02:13:42.834Z,96270.31
2022-12-24T02:16:22.747Z,96276.53
2022-12-24T02:19:00.715Z,96286.19
2022-12-24T02:21:54.555Z,96298.22
2022-12-24T02:24:50.251Z,96295.78
2022-12-24T02:27:27.910Z,96315.06
2022-12-24T02:30:04.684Z,96321.88
2022-12-24T02:32:38.327Z,96323.50
2022-12-24T02:35:11.640Z,96319.91
2022-12-24T02:37:43.466Z,96311.44
2022-12-24T02:40:16.756Z,96308.22
2022-12-24T02:42:49.321Z,96314.63
2022-12-24T02:45:21.856Z,96323.47
2022-12-24T02:47:51.024Z,96329.88
2022-12-24T02:50:19.368Z,96337.09
2022-12-24T02:52:48.082Z,96339.09
2022-12-24T02:55:18.838Z,96329.63
2022-12-24T02:58:11.441Z,96329.63
2022-12-24T03:00:57.261Z,96335.66
2022-12-24T03:03:37.717Z,96335.84
2022-12-24T03:06:14.819Z,96339.44
2022-12-24T03:08:50.188Z,96354.13
2022-12-24T03:11:19.556Z,96358.72
2022-12-24T03:13:49.452Z,96352.88
2022-12-24T03:16:24.714Z,96359.91
2022-12-24T03:18:54.313Z,96354.88
2022-12-24T03:21:27.017Z,96354.06
2022-12-24T03:23:55.501Z,96361.72
2022-12-24T03:26:23.394Z,96361.09
2022-12-24T03:28:51.191Z,96368.72
2022-12-24T03:31:20.584Z,96378.34
2022-12-24T03:33:48.557Z,96372.16
2022-12-24T05:24:54.806Z,96459.09
2022-12-24T05:27:38.753Z,96470.69
2022-12-24T05:30:10.929Z,96460.44
2022-12-24T05:33:03.687Z,96463.84
2022-12-24T05:35:39.273Z,96461.44
2022-12-24T05:38:22.016Z,96457.22
2022-12-24T05:41:15.370Z,96455.63
2022-12-24T05:44:01.609Z,96459.19
2022-12-24T05:46:36.796Z,96444.34
2022-12-24T05:49:26.457Z,96448.75
2022-12-24T05:55:31.683Z,96448.97
2022-12-24T05:58:06.649Z,96460.00
2022-12-24T06:01:07.031Z,96446.38
2022-12-24T06:03:44.435Z,96437.53
2022-12-24T06:06:26.588Z,96447.16
2022-12-24T06:09:08.021Z,96460.19
2022-12-24T06:11:57.398Z,96462.00
2022-12-24T06:14:41.212Z,96461.19
2022-12-24T06:17:22.090Z,96459.75
2022-12-24T06:20:33.925Z,96466.16
2022-12-24T06:26:25.719Z,96473.72
2022-12-24T06:29:18.393Z,96474.88
2022-12-24T06:31:59.208Z,96474.25
2022-12-24T06:34:41.675Z,96469.03
2022-12-24T06:37:30.652Z,96465.84
2022-12-24T06:40:13.784Z,96463.81
2022-12-24T07:00:39.976Z,96513.97
2022-12-24T07:03:07.543Z,96518.41
2022-12-24T07:05:36.428Z,96524.41
2022-12-24T07:08:04.073Z,96534.41
2022-12-24T07:10:31.681Z,96535.59
2022-12-24T07:12:59.219Z,96539.19
2022-12-24T07:15:26.915Z,96537.53
2022-12-24T07:17:54.543Z,96535.91
2022-12-24T07:20:22.259Z,96542.28
2022-12-24T07:22:52.839Z,96541.03
2022-12-24T07:33:12.612Z,96569.09
2022-12-24T07:38:18.771Z,96577.53
2022-12-24T07:40:47.752Z,96563.53
2022-12-24T07:43:15.309Z,96569.09
2022-12-24T07:45:43.051Z,96581.13
2022-12-24T07:48:10.560Z,96572.69
2022-12-24T07:50:38.109Z,96568.44
2022-12-24T07:53:05.809Z,96577.91
2022-12-24T07:55:34.695Z,96583.13
2022-12-24T07:58:02.198Z,96594.19
2022-12-24T08:00:29.724Z,96588.97
2022-12-24T08:02:58.620Z,96594.97
2022-12-24T08:05:26.589Z,96595.16
2022-12-24T08:07:54.118Z,96595.16
2022-12-24T08:10:21.841Z,96599.38
2022-12-24T08:12:50.708Z,96598.75
2022-12-24T08:15:18.460Z,96589.50
2022-12-24T08:17:46.021Z,96599.09
2022-12-24T08:20:13.703Z,96601.69
2022-12-24T08:22:41.288Z,96603.69
2022-12-24T08:25:10.349Z,96609.09
2022-12-24T08:27:37.956Z,96603.88
2022-12-24T08:30:08.630Z,96607.28
2022-12-24T08:32:36.236Z,96606.28
2022-12-24T08:35:04.055Z,96608.72
2022-12-24T08:37:31.532Z,96604.31
2022-12-24T08:39:59.146Z,96610.16
2022-12-24T08:42:26.746Z,96618.81
2022-12-24T08:44:56.620Z,96623.19
2022-12-24T08:47:25.501Z,96628.88
2022-12-24T08:49:52.986Z,96634.53
2022-12-24T08:52:20.586Z,96638.38
2022-12-24T08:54:48.074Z,96646.06
2022-12-24T08:57:15.681Z,96653.06
2022-12-24T08:59:43.241Z,96648.50
2022-12-24T09:02:10.939Z,96657.94
2022-12-24T09:04:41.042Z,96659.56
2022-12-24T09:07:08.924Z,96661.16
2022-12-24T09:09:38.220Z,96663.63
2022-12-24T09:12:06.988Z,96671.25
2022-12-24T09:14:34.560Z,96676.47
2022-12-24T09:17:02.160Z,96670.81
2022-12-24T09:19:29.969Z,96669.53
2022-12-24T09:21:58.881Z,96675.56
2022-12-24T09:24:26.437Z,96689.22
2022-12-24T09:26:57.712Z,96685.63
2022-12-24T09:29:25.918Z,96676.00
2022-12-24T09:31:55.130Z,96676.00
2022-12-24T09:34:29.935Z,96675.22
2022-12-24T09:37:00.656Z,96687.25
2022-12-24T09:39:28.138Z,96696.50
2022-12-24T09:42:09.080Z,96706.59
2022-12-24T09:44:44.455Z,96701.22
2022-12-24T09:47:22.247Z,96699.03
2022-12-24T09:49:54.223Z,96695.47
2022-12-24T09:52:31.671Z,96697.69
2022-12-24T09:55:05.663Z,96699.13
2022-12-24T09:57:38.369Z,96700.41
2022-12-24T10:00:06.679Z,96705.38
2022-12-24T10:02:34.551Z,96711.03
2022-12-24T10:05:02.087Z,96717.50
2022-12-24T10:07:41.349Z,96711.91
2022-12-24T10:10:19.831Z,96711.41
2022-12-24T10:12:54.820Z,96714.44
2022-12-24T10:15:29.384Z,96707.06
2022-12-24T10:18:09.921Z,96706.53
2022-12-24T10:20:46.209Z,96709.78
2022-12-24T10:23:22.106Z,96707.78
2022-12-24T10:25:57.234Z,96710.41
2022-12-24T10:28:31.036Z,96706.78
2022-12-24T10:31:03.764Z,96703.19
2022-12-24T10:33:33.717Z,96707.88
2022-12-24T10:36:06.735Z,96713.91
2022-12-24T10:38:38.859Z,96720.75
2022-12-24T10:41:06.865Z,96714.34
2022-12-24T10:43:34.647Z,96708.94
2022-12-24T10:46:06.324Z,96718.03
2022-12-24T10:48:48.303Z,96715.50
2022-12-24T10:51:23.026Z,96704.16
2022-12-24T10:53:57.348Z,96710.63
2022-12-24T10:56:24.918Z,96708.63
2022-12-24T10:58:54.533Z,96715.13
2022-12-24T11:01:42.554Z,96714.38
2022-12-24T11:04:17.315Z,96713.91
2022-12-24T11:06:54.539Z,96722.22
2022-12-24T11:09:25.776Z,96713.28
2022-12-24T11:11:53.827Z,96705.31
2022-12-24T11:14:22.376Z,96704.44
2022-12-24T11:16:53.698Z,96706.09
2022-12-24T11:19:29.309Z,96706.97
2022-12-24T11:22:04.475Z,96700.16
2022-12-24T11:24:35.186Z,96702.66
2022-12-24T11:27:30.241Z,96696.28
2022-12-24T11:30:29.927Z,96701.38
2022-12-24T11:33:19.638Z,96694.38
2022-12-24T11:35:50.833Z,96694.38
2022-12-24T11:38:22.505Z,96694.81
2022-12-24T11:40:58.366Z,96690.63
2022-12-24T11:43:44.226Z,96689.41
2022-12-24T11:46:35.759Z,96697.69
2022-12-24T11:49:16.370Z,96706.34
2022-12-24T11:52:03.622Z,96698.50
2022-12-24T11:54:35.243Z,96702.31
2022-12-24T11:57:04.896Z,96702.91
2022-12-24T11:59:37.599Z,96704.88
2022-12-24T12:02:14.530Z,96702.28
2022-12-24T12:04:45.148Z,96706.25
2022-12-24T12:07:16.047Z,96713.72
2022-12-24T12:09:47.259Z,96697.56
2022-12-24T12:12:19.956Z,96702.00
2022-12-24T12:14:50.116Z,96699.19
2022-12-24T12:17:31.196Z,96689.72
2022-12-24T12:20:04.034Z,96683.56
2022-12-24T12:22:39.258Z,96684.81
2022-12-24T12:25:18.547Z,96677.63
2022-12-24T12:27:50.637Z,96684.75
2022-12-24T12:30:20.792Z,96677.38
2022-12-24T12:32:54.528Z,96680.63
2022-12-24T12:35:26.790Z,96682.47
2022-12-24T12:37:58.893Z,96679.06
2022-12-24T12:40:40.166Z,96697.00
2022-12-24T12:43:24.063Z,96687.56
2022-12-24T12:45:58.193Z,96700.03
2022-12-24T12:48:43.646Z,96702.41
2022-12-24T12:51:21.452Z,96700.38
2022-12-24T12:54:01.556Z,96708.63
2022-12-24T12:56:32.217Z,96706.78
2022-12-24T12:59:05.073Z,96708.16
2022-12-24T13:01:43.924Z,96709.38
2022-12-24T13:04:52.066Z,96719.84
2022-12-24T13:07:43.562Z,96710.34
2022-12-24T13:10:32.047Z,96719.00
2022-12-24T13:13:20.382Z,96713.34
2022-12-24T13:16:14.436Z,96727.00
2022-12-24T13:18:52.312Z,96730.00
2022-12-24T13:21:23.457Z,96732.38
2022-12-24T13:23:51.366Z,96734.78
2022-12-24T13:26:19.578Z,96740.75
2022-12-24T13:28:47.109Z,96732.69
2022-12-24T13:31:29.968Z,96731.63
2022-12-24T13:34:03.439Z,96719.91
2022-12-24T13:37:03.867Z,96726.97
2022-12-24T13:40:17.844Z,96732.59
2022-12-24T13:43:07.104Z,96738.19
2022-12-24T13:45:48.007Z,96747.41
2022-12-24T13:48:29.812Z,96743.53
2022-12-24T13:51:00.337Z,96741.31
2022-12-24T13:53:32.461Z,96735.22
2022-12-24T13:56:07.520Z,96744.44
2022-12-24T13:58:37.408Z,96750.03
2022-12-24T14:01:09.558Z,96742.56
2022-12-24T14:03:46.277Z,96748.19
2022-12-24T14:06:24.038Z,96745.13
2022-12-24T14:08:55.576Z,96759.38
2022-12-24T14:11:25.366Z,96759.38
2022-12-24T14:14:12.560Z,96756.94
2022-12-24T14:16:46.680Z,96751.28
2022-12-24T14:19:20.161Z,96755.06
2022-12-24T14:21:55.821Z,96757.25
2022-12-24T14:24:26.334Z,96750.56
2022-12-24T14:26:58.019Z,96745.53
2022-12-24T14:29:29.934Z,96740.31
2022-12-24T14:32:00.014Z,96733.44
2022-12-24T14:34:29.492Z,96742.47
2022-12-24T14:36:57.591Z,96736.63
2022-12-24T14:39:29.376Z,96733.59
2022-12-24T14:42:05.618Z,96734.13
2022-12-24T14:44:42.503Z,96733.47
2022-12-24T14:47:21.997Z,96728.19
2022-12-24T14:50:17.011Z,96725.50
2022-12-24T14:53:09.375Z,96728.06
2022-12-24T14:55:42.508Z,96724.38
2022-12-24T14:58:25.728Z,96738.97
2022-12-24T15:00:55.654Z,96731.69
2022-12-24T15:03:25.267Z,96740.31
2022-12-24T15:05:56.461Z,96735.47
2022-12-24T15:08:30.364Z,96743.88
2022-12-24T15:11:02.681Z,96738.19
2022-12-24T15:13:36.718Z,96732.72
2022-12-24T15:16:06.117Z,96733.06
2022-12-24T15:18:37.970Z,96738.81
2022-12-24T15:21:14.686Z,96738.19
2022-12-24T15:23:46.965Z,96748.00
2022-12-24T15:26:23.363Z,96751.78
2022-12-24T15:28:55.113Z,96756.13
2022-12-24T15:31:27.595Z,96754.22
2022-12-24T15:33:56.796Z,96755.75
2022-12-24T15:47:09.711Z,96755.19
2022-12-24T15:49:37.953Z,96756.88
2022-12-24T15:52:07.300Z,96754.97
2022-12-24T15:54:35.247Z,96757.31
2022-12-24T15:57:14.478Z,96770.69
2022-12-24T15:59:42.112Z,96769.88
2022-12-24T16:02:33.928Z,96765.84
2022-12-24T16:05:31.682Z,96769.75
2022-12-24T16:08:10.922Z,96775.66
2022-12-24T16:10:41.763Z,96777.97
2022-12-24T16:13:15.745Z,96777.06
2022-12-24T16:15:48.315Z,96785.56
2022-12-24T16:18:24.884Z,96793.06
2022-12-24T16:20:54.134Z,96802.22
2022-12-24T16:23:24.706Z,96794.75
2022-12-24T16:25:53.750Z,96784.84
2022-12-24T16:28:23.240Z,96782.41
2022-12-24T16:30:51.208Z,96785.38
2022-12-24T16:33:21.767Z,96778.53
2022-12-24T16:35:49.497Z,96789.31
2022-12-24T16:38:17.324Z,96785.25
2022-12-24T16:40:45.143Z,96781.38
2022-12-24T16:43:30.461Z,96786.75
2022-12-24T16:46:02.037Z,96789.69
2022-12-24T16:48:31.275Z,96777.00
2022-12-24T16:50:58.732Z,96786.97
2022-12-24T16:53:26.269Z,96782.09
2022-12-24T16:55:53.781Z,96790.09
2022-12-24T16:58:22.149Z,96792.84
2022-12-24T17:00:49.673Z,96806.03
2022-12-24T17:03:17.346Z,96803.44
2022-12-24T17:05:46.259Z,96796.25
2022-12-24T17:08:14.885Z,96803.09
2022-12-24T17:10:50.537Z,96798.53
2022-12-24T17:13:18.049Z,96813.00
2022-12-24T17:15:45.639Z,96807.81
2022-12-24T17:18:13.173Z,96802.59
2022-12-24T17:20:40.690Z,96804.41
2022-12-24T17:23:09.535Z,96822.63
2022-12-24T17:25:37.248Z,96822.78
2022-12-24T17:28:05.020Z,96833.03
2022-12-24T17:30:32.545Z,96837.91
2022-12-24T17:33:00.210Z,96828.78
2022-12-24T17:35:28.114Z,96833.63
2022-12-24T17:37:55.651Z,96830.06
2022-12-24T17:40:24.486Z,96831.50
2022-12-24T17:42:52.524Z,96826.13
2022-12-24T17:45:20.293Z,96829.03
2022-12-24T17:47:47.843Z,96825.09
2022-12-24T17:50:15.631Z,96826.72
2022-12-24T17:52:43.230Z,96834.00
2022-12-24T17:55:11.149Z,96829.28
2022-12-24T17:57:40.005Z,96826.16
2022-12-24T18:00:08.870Z,96830.19
2022-12-24T18:02:36.706Z,96833.44
2022-12-24T18:05:04.735Z,96829.69
2022-12-24T18:07:32.223Z,96839.94
2022-12-24T18:09:59.984Z,96843.19
2022-12-24T18:12:27.530Z,96842.84
2022-12-24T18:14:56.460Z,96844.47
2022-12-24T18:17:23.956Z,96852.13
2022-12-24T18:19:51.687Z,96854.53
2022-12-24T18:22:19.252Z,96861.41
2022-12-24T18:24:46.706Z,96862.38
2022-12-24T18:27:14.193Z,96864.00
2022-12-24T18:29:42.435Z,96849.31
2022-12-24T18:32:12.860Z,96854.91
2022-12-24T18:34:40.361Z,96859.13
2022-12-24T18:37:07.929Z,96851.28
2022-12-24T18:39:35.651Z,96844.94
2022-12-24T18:42:03.199Z,96856.81
2022-12-24T18:44:30.766Z,96853.84
2022-12-24T18:46:58.639Z,96848.66
2022-12-24T18:49:27.697Z,96844.44
2022-12-24T18:51:55.343Z,96839.38
2022-12-24T18:54:22.903Z,96843.78
2022-12-24T18:56:51.533Z,96844.75
2022-12-24T18:59:19.350Z,96846.56
2022-12-24T19:01:46.939Z,96845.13
2022-12-24T19:04:14.976Z,96848.03
2022-12-24T19:06:50.739Z,96847.59
2022-12-24T19:09:20.433Z,96836.38
2022-12-24T19:11:48.187Z,96830.31
2022-12-24T19:14:16.195Z,96839.78
2022-12-24T19:16:43.723Z,96843.03
2022-12-24T19:19:12.475Z,96848.03
2022-12-24T19:21:40.034Z,96854.09
2022-12-24T19:24:10.593Z,96843.66
2022-12-24T19:26:38.561Z,96843.66
2022-12-24T19:29:06.123Z,96849.69
2022-12-24T19:31:33.785Z,96856.50
2022-12-24T19:34:02.090Z,96849.69
2022-12-24T19:36:30.858Z,96852.66
2022-12-24T19:38:59.222Z,96851.19
2022-12-24T19:41:29.406Z,96853.97
2022-12-24T19:43:59.042Z,96858.19
2022-12-24T19:46:28.185Z,96847.59
2022-12-24T19:48:57.297Z,96850.22
2022-12-24T19:51:26.108Z,96840.75
2022-12-24T19:53:55.025Z,96856.59
2022-12-24T19:56:24.192Z,96862.75
2022-12-24T19:58:53.703Z,96871.56
2022-12-24T20:01:23.180Z,96878.75
2022-12-24T20:03:53.103Z,96875.16
2022-12-24T20:06:22.817Z,96878.41
2022-12-24T20:08:50.791Z,96864.41
2022-12-24T20:11:22.195Z,96866.00
2022-12-24T20:13:49.958Z,96855.25
2022-12-24T20:16:22.596Z,96862.88
2022-12-24T20:18:52.752Z,96869.75
2022-12-24T20:21:20.846Z,96866.13
2022-12-24T20:23:48.364Z,96888.44
2022-12-24T20:26:18.075Z,96884.84
2022-12-24T20:28:45.991Z,96889.06
2022-12-24T20:31:15.918Z,96895.13
2022-12-24T20:33:46.223Z,96897.38
2022-12-24T20:36:15.835Z,96904.19
2022-12-24T20:38:43.804Z,96906.00
2022-12-24T20:41:12.244Z,96907.97
2022-12-24T20:43:47.339Z,96908.31
2022-12-24T20:46:19.230Z,96908.47
2022-12-24T20:48:48.524Z,96904.91
2022-12-24T20:51:23.671Z,96897.88
2022-12-24T20:53:53.183Z,96900.66
2022-12-24T20:56:20.767Z,96899.22
2022-12-24T20:58:48.296Z,96901.97
2022-12-24T21:01:17.896Z,96896.97
2022-12-24T21:03:45.571Z,96901.53
2022-12-24T21:06:15.619Z,96905.75
2022-12-24T21:08:43.166Z,96910.00
2022-12-24T21:11:27.369Z,96912.25
2022-12-24T21:13:54.955Z,96907.03
2022-12-24T21:16:22.525Z,96900.19
2022-12-24T21:18:50.450Z,96906.22
2022-12-24T21:21:19.388Z,96902.19
2022-12-24T21:23:46.916Z,96899.72
2022-12-24T21:26:14.479Z,96900.69
2022-12-24T21:28:42.627Z,96894.69
2022-12-24T21:31:11.133Z,96901.84
2022-12-24T21:33:38.915Z,96901.22
2022-12-24T21:36:06.984Z,96907.59
2022-12-24T21:38:36.244Z,96912.31
2022-12-24T21:41:05.762Z,96916.06
2022-12-24T21:43:34.386Z,96906.00
2022-12-24T21:46:02.181Z,96900.94
2022-12-24T21:54:16.591Z,96909.75
2022-12-24T22:07:50.239Z,96942.00
2022-12-24T22:29:06.723Z,96919.78
2022-12-24T22:31:34.307Z,96921.38
2022-12-24T22:34:01.946Z,96924.00
2022-12-24T22:36:29.582Z,96925.00
2022-12-24T22:38:57.115Z,96925.00
2022-12-24T22:41:24.624Z,96917.34
2022-12-24T22:54:57.670Z,96908.59
2022-12-24T23:08:14.335Z,96884.41
2022-12-24T23:10:43.147Z,96888.16
2022-12-24T23:13:28.011Z,96881.03
2022-12-24T23:15:55.506Z,96879.09
2022-12-24T23:18:23.017Z,96882.53
2022-12-24T23:20:50.503Z,96880.75
2022-12-24T23:36:48.540Z,96880.59
2022-12-24T23:39:16.261Z,96877.50
2022-12-24T23:41:43.861Z,96879.66
2022-12-24T23:44:11.377Z,96881.25
2022-12-24T23:46:38.934Z,96887.28
2022-12-24T23:49:06.780Z,96884.69
